Ana Sayfa
METAR-TAF:

METAR-TAF

Havaalanları :

Taos Regional Airport

Taos, New Mexico, Amerika Birleşik Devletleri

Enlem: 36-27N, Boylam: 105-40W, yükseklik: 2161 m

Güncel hava durumu gözlemi

Rapor saat 14:56 UTC de 35 dakika önce yapıldı.
Sakin rüzgar
Sıcaklık 20°C
Nem 43%
Basınç 1028 hPa

METAR: KSKX 211456Z AUTO 00000KT 20/07 A3036 RMK AO2 SLP208 T02000072 50004 PWINO RVRNO $

Saat: 09:31 (15:31 UTC)


TAF: eksik

4.000'den fazla havaalanı için hava durumu gözlemleri ve tahminleri (METAR ve TAF raporları).

Kullanılabilir istasyonlar harita üzerinde sarı ve kırmızı noktalarla gösterilir.

İstasyonun adını görmek için fareyi noktanın üzerinde gezdirin.

Sonrasında hava gözlem ve tahminlerini görmek için tıklayın.

Haritayı değiştirmek için: yaklaştırmak için siyah artı işaretli yeşil düğmeye ve uzaklaştırmak için de eksi işaretli düğmeye hızla tıklayın; bitişik haritalar için yeşil okları kullanın.


METAR-TAF: